createdAt,value
2018-01-27T00:00:40.024Z,34.33
2018-01-27T00:03:09.060Z,33.40
2018-01-27T00:05:37.990Z,33.37
2018-01-27T00:08:07.086Z,32.60
2018-01-27T00:10:35.976Z,33.50
2018-01-27T00:13:05.596Z,33.00
2018-01-27T00:15:35.248Z,31.67
2018-01-27T00:18:04.982Z,34.27
2018-01-27T00:20:33.584Z,34.70
2018-01-27T00:23:02.375Z,33.57
2018-01-27T00:25:33.141Z,33.37
2018-01-27T00:28:04.123Z,34.10
2018-01-27T00:30:34.821Z,33.93
2018-01-27T00:33:03.901Z,35.20
2018-01-27T00:35:32.792Z,35.10
2018-01-27T00:38:01.554Z,34.97
2018-01-27T00:40:31.330Z,35.40
2018-01-27T00:43:01.380Z,34.70
2018-01-27T00:45:31.372Z,36.70
2018-01-27T00:48:01.002Z,34.47
2018-01-27T00:50:29.820Z,35.40
2018-01-27T00:52:58.924Z,36.90
2018-01-27T00:55:28.732Z,38.90
2018-01-27T00:57:58.532Z,35.30
2018-01-27T01:00:27.983Z,33.97
2018-01-27T01:02:56.862Z,36.67
2018-01-27T01:05:26.659Z,33.67
2018-01-27T01:07:55.452Z,35.17
2018-01-27T01:10:24.229Z,37.90
2018-01-27T01:12:54.058Z,36.07
2018-01-27T01:15:22.564Z,36.10
2018-01-27T01:17:53.027Z,37.17
2018-01-27T01:20:21.822Z,36.17
2018-01-27T01:22:51.636Z,34.63
2018-01-27T01:25:20.336Z,37.20
2018-01-27T01:27:49.285Z,34.80
2018-01-27T01:30:18.404Z,35.73
2018-01-27T01:32:46.816Z,35.67
2018-01-27T01:35:16.824Z,37.60
2018-01-27T01:37:45.980Z,35.73
2018-01-27T01:40:14.713Z,36.77
2018-01-27T01:42:49.540Z,37.03
2018-01-27T01:45:18.323Z,35.20
2018-01-27T01:47:47.408Z,34.23
2018-01-27T01:50:17.765Z,36.03
2018-01-27T01:52:46.916Z,37.70
2018-01-27T01:55:16.438Z,36.97
2018-01-27T01:57:47.044Z,36.07
2018-01-27T02:00:17.778Z,36.37
2018-01-27T02:02:47.742Z,36.83
2018-01-27T02:05:17.001Z,36.67
2018-01-27T02:07:45.899Z,39.60
2018-01-27T02:10:14.599Z,37.20
2018-01-27T02:12:44.035Z,38.63
2018-01-27T02:15:13.800Z,39.53
2018-01-27T02:17:42.579Z,35.33
2018-01-27T02:20:12.065Z,37.30
2018-01-27T02:22:40.727Z,39.20
2018-01-27T02:25:11.227Z,40.67
2018-01-27T02:27:40.154Z,37.77
2018-01-27T02:30:10.311Z,37.37
2018-01-27T02:32:39.550Z,37.67
2018-01-27T02:35:08.830Z,37.33
2018-01-27T02:37:38.781Z,37.83
2018-01-27T02:40:08.873Z,37.10
2018-01-27T02:42:38.083Z,36.47
2018-01-27T02:45:07.209Z,36.13
2018-01-27T02:47:36.360Z,35.87
2018-01-27T02:50:05.257Z,38.80
2018-01-27T02:52:34.642Z,36.60
2018-01-27T02:55:04.782Z,36.57
2018-01-27T02:57:34.918Z,37.03
2018-01-27T03:00:04.298Z,34.30
2018-01-27T03:02:33.283Z,35.80
2018-01-27T03:05:04.120Z,35.30
2018-01-27T03:07:34.416Z,35.10
2018-01-27T03:10:03.743Z,35.10
2018-01-27T03:12:33.541Z,34.83
2018-01-27T03:15:02.656Z,34.10
2018-01-27T03:17:31.576Z,33.17
2018-01-27T03:20:01.962Z,33.90
2018-01-27T03:22:30.990Z,34.47
2018-01-27T03:25:00.483Z,35.07
2018-01-27T03:27:29.340Z,35.50
2018-01-27T03:29:58.907Z,34.73
2018-01-27T03:32:28.150Z,39.40
2018-01-27T03:34:57.709Z,35.27
2018-01-27T03:37:26.950Z,35.17
2018-01-27T03:39:56.958Z,35.87
2018-01-27T03:42:26.920Z,35.83
2018-01-27T03:44:56.515Z,35.40
2018-01-27T03:47:26.971Z,36.20
2018-01-27T03:49:56.448Z,35.60
2018-01-27T03:52:25.585Z,35.97
2018-01-27T03:54:54.423Z,33.30
2018-01-27T03:57:23.765Z,33.87
2018-01-27T03:59:53.683Z,33.03
2018-01-27T04:02:23.556Z,33.60
2018-01-27T04:04:53.714Z,36.70
2018-01-27T04:07:22.871Z,34.77
2018-01-27T04:09:51.991Z,31.90
2018-01-27T04:12:21.809Z,33.83
2018-01-27T04:14:50.343Z,33.93
2018-01-27T04:17:19.723Z,33.50
2018-01-27T04:19:48.787Z,33.03
2018-01-27T04:22:17.482Z,33.03
2018-01-27T04:24:47.607Z,36.53
2018-01-27T04:27:17.218Z,35.63
2018-01-27T04:29:46.176Z,35.60
2018-01-27T04:32:15.958Z,36.23
2018-01-27T04:34:44.423Z,36.53
2018-01-27T04:37:13.149Z,37.43
2018-01-27T04:39:41.915Z,34.23
2018-01-27T04:42:11.904Z,37.53
2018-01-27T04:44:42.050Z,37.00
2018-01-27T04:47:10.529Z,36.87
2018-01-27T04:49:40.337Z,39.10
2018-01-27T04:52:09.470Z,36.10
2018-01-27T04:54:38.220Z,39.70
2018-01-27T04:57:07.452Z,37.93
2018-01-27T04:59:36.820Z,37.03
2018-01-27T05:02:06.483Z,36.67
2018-01-27T05:04:35.160Z,36.23
2018-01-27T05:07:04.536Z,38.27
2018-01-27T05:09:33.291Z,37.90
2018-01-27T05:12:02.610Z,38.33
2018-01-27T05:14:32.298Z,39.33
2018-01-27T05:17:01.471Z,40.90
2018-01-27T05:19:30.217Z,41.47
2018-01-27T05:21:59.594Z,40.60
2018-01-27T05:24:29.529Z,41.57
2018-01-27T05:26:59.431Z,39.27
2018-01-27T05:29:27.808Z,40.87
2018-01-27T05:31:57.331Z,39.63
2018-01-27T05:34:26.164Z,42.70
2018-01-27T05:36:55.015Z,39.33
2018-01-27T05:39:24.365Z,41.63
2018-01-27T05:41:52.834Z,39.53
2018-01-27T05:44:22.544Z,37.77
2018-01-27T05:46:51.808Z,39.40
2018-01-27T05:49:20.651Z,37.73
2018-01-27T05:51:49.648Z,37.93
2018-01-27T05:54:18.878Z,35.80
2018-01-27T05:56:48.923Z,37.40
2018-01-27T05:59:17.634Z,35.90
2018-01-27T06:01:46.375Z,37.23
2018-01-27T06:04:14.857Z,35.60
2018-01-27T06:06:44.634Z,36.97
2018-01-27T06:09:14.251Z,33.90
2018-01-27T06:11:43.129Z,35.10
2018-01-27T06:14:12.312Z,35.10
2018-01-27T06:16:41.208Z,33.90
2018-01-27T06:19:10.806Z,33.03
2018-01-27T06:21:39.912Z,33.30
2018-01-27T06:24:08.448Z,34.00
2018-01-27T06:26:36.826Z,32.33
2018-01-27T06:29:05.529Z,33.90
2018-01-27T06:31:35.308Z,34.67
2018-01-27T06:34:04.519Z,34.70
2018-01-27T06:36:34.442Z,33.60
2018-01-27T06:39:03.438Z,34.10
2018-01-27T06:41:31.853Z,35.33
2018-01-27T06:44:00.482Z,34.07
2018-01-27T06:46:29.325Z,33.00
2018-01-27T06:48:57.714Z,34.30
2018-01-27T06:51:26.600Z,35.17
2018-01-27T06:53:55.298Z,32.53
2018-01-27T06:56:24.278Z,33.87
2018-01-27T06:58:53.548Z,34.30
2018-01-27T07:01:23.500Z,33.03
2018-01-27T07:03:51.955Z,33.67
2018-01-27T07:06:20.752Z,34.27
2018-01-27T07:08:49.355Z,35.83
2018-01-27T07:11:19.248Z,34.87
2018-01-27T07:13:49.021Z,35.07
2018-01-27T07:16:17.442Z,36.07
2018-01-27T07:18:45.992Z,34.57
2018-01-27T07:21:15.051Z,34.50
2018-01-27T07:23:45.173Z,32.70
2018-01-27T07:26:14.300Z,31.30
2018-01-27T07:28:42.847Z,31.50
2018-01-27T07:31:13.260Z,30.63
2018-01-27T07:33:41.929Z,34.00
2018-01-27T07:36:11.373Z,28.77
2018-01-27T07:38:40.291Z,28.53
2018-01-27T07:41:09.834Z,30.00
2018-01-27T07:43:39.165Z,28.13
2018-01-27T07:46:08.277Z,27.90
2018-01-27T07:48:37.229Z,26.53
2018-01-27T07:51:05.754Z,24.27
2018-01-27T07:53:35.140Z,22.77
2018-01-27T07:56:04.845Z,22.93
2018-01-27T07:58:33.772Z,22.27
2018-01-27T08:01:02.368Z,24.60
2018-01-27T08:03:31.725Z,21.90
2018-01-27T08:06:02.093Z,21.00
2018-01-27T08:08:31.588Z,20.40
2018-01-27T08:11:00.007Z,19.87
2018-01-27T08:13:29.365Z,20.43
2018-01-27T08:15:58.238Z,20.07
2018-01-27T08:18:27.364Z,19.90
2018-01-27T08:20:56.300Z,19.43
2018-01-27T08:23:24.674Z,23.27
2018-01-27T08:25:54.521Z,19.23
2018-01-27T08:28:23.320Z,17.93
2018-01-27T08:30:52.537Z,17.00
2018-01-27T08:33:21.644Z,17.60
2018-01-27T08:35:52.673Z,16.67
2018-01-27T08:38:21.822Z,18.07
2018-01-27T08:40:51.056Z,17.93
2018-01-27T08:43:19.889Z,18.30
2018-01-27T08:45:49.064Z,14.60
2018-01-27T08:48:18.874Z,14.63
2018-01-27T08:50:48.806Z,16.37
2018-01-27T08:53:17.242Z,15.93
2018-01-27T08:55:46.089Z,15.60
2018-01-27T08:58:15.199Z,16.00
2018-01-27T09:00:43.947Z,15.33
2018-01-27T09:03:12.432Z,13.77
2018-01-27T09:05:40.790Z,15.57
2018-01-27T09:08:10.023Z,14.70
2018-01-27T09:10:38.388Z,14.73
2018-01-27T09:13:06.748Z,14.03
2018-01-27T09:15:35.242Z,14.33
2018-01-27T09:18:03.595Z,15.60
2018-01-27T09:20:31.965Z,13.67
2018-01-27T09:23:00.351Z,14.63
2018-01-27T09:25:28.852Z,14.60
2018-01-27T09:27:57.317Z,13.90
2018-01-27T09:30:25.724Z,13.47
2018-01-27T09:32:54.123Z,14.53
2018-01-27T09:35:22.481Z,13.63
2018-01-27T09:37:50.840Z,12.90
2018-01-27T09:40:19.222Z,14.10
2018-01-27T09:42:47.580Z,14.67
2018-01-27T09:45:16.051Z,13.60
2018-01-27T09:47:44.487Z,13.33
2018-01-27T09:50:12.842Z,14.70
2018-01-27T09:52:42.106Z,11.93
2018-01-27T09:55:10.476Z,13.80
2018-01-27T09:57:39.268Z,13.40
2018-01-27T10:00:08.119Z,13.40
2018-01-27T10:02:36.492Z,14.33
2018-01-27T10:05:04.877Z,13.77
2018-01-27T10:07:33.231Z,13.57
2018-01-27T10:10:01.606Z,13.37
2018-01-27T10:12:29.995Z,12.10
2018-01-27T10:14:58.359Z,13.20
2018-01-27T10:17:26.724Z,12.17
2018-01-27T10:19:55.079Z,11.30
2018-01-27T10:22:24.000Z,12.40
2018-01-27T10:24:52.404Z,13.10
2018-01-27T10:27:20.784Z,11.87
2018-01-27T10:29:49.161Z,12.00
2018-01-27T10:32:17.517Z,11.93
2018-01-27T10:34:45.882Z,12.23
2018-01-27T10:37:14.808Z,12.43
2018-01-27T10:39:43.228Z,12.23
2018-01-27T10:42:11.996Z,12.60
2018-01-27T10:44:40.352Z,12.50
2018-01-27T10:47:08.708Z,12.77
2018-01-27T10:49:37.089Z,16.20
2018-01-27T10:52:05.475Z,14.33
2018-01-27T10:54:33.857Z,15.17
2018-01-27T10:57:02.203Z,15.40
2018-01-27T10:59:30.960Z,13.47
2018-01-27T11:01:59.334Z,13.20
2018-01-27T11:04:28.104Z,16.10
2018-01-27T11:06:56.580Z,14.33
2018-01-27T11:09:24.932Z,15.63
2018-01-27T11:11:53.351Z,15.20
2018-01-27T11:14:21.711Z,15.00
2018-01-27T11:16:50.068Z,15.30
2018-01-27T11:19:18.448Z,15.47
2018-01-27T11:21:46.802Z,14.90
2018-01-27T11:24:15.644Z,15.60
2018-01-27T11:26:44.040Z,15.30
2018-01-27T11:29:12.398Z,15.47
2018-01-27T11:31:40.887Z,15.90
2018-01-27T11:34:09.301Z,14.07
2018-01-27T11:36:38.084Z,16.97
2018-01-27T11:39:06.442Z,15.63
2018-01-27T11:41:34.798Z,14.90
2018-01-27T11:44:03.167Z,15.83
2018-01-27T11:46:31.534Z,17.30
2018-01-27T11:48:59.910Z,16.93
2018-01-27T11:51:28.280Z,16.73
2018-01-27T11:53:57.020Z,17.13
2018-01-27T11:56:25.400Z,15.77
2018-01-27T11:58:53.747Z,15.17
2018-01-27T12:01:22.142Z,16.90
2018-01-27T12:03:50.525Z,18.20
2018-01-27T12:06:18.891Z,16.03
2018-01-27T12:08:47.264Z,15.97
2018-01-27T12:11:15.683Z,15.80
2018-01-27T12:13:44.071Z,15.57
2018-01-27T12:16:12.490Z,16.60
2018-01-27T12:18:40.930Z,15.50
2018-01-27T12:21:09.369Z,16.27
2018-01-27T12:23:37.722Z,17.00
2018-01-27T12:26:06.084Z,16.10
2018-01-27T12:28:34.918Z,17.00
2018-01-27T12:31:03.276Z,15.30
2018-01-27T12:33:31.683Z,16.40
2018-01-27T12:36:00.047Z,15.37
2018-01-27T12:38:28.400Z,17.90
2018-01-27T12:40:56.827Z,16.80
2018-01-27T12:43:25.421Z,17.80
2018-01-27T12:45:53.900Z,15.60
2018-01-27T12:48:22.373Z,17.03
2018-01-27T12:50:50.822Z,18.47
2018-01-27T12:53:19.184Z,18.07
2018-01-27T12:55:47.953Z,18.23
2018-01-27T12:58:16.728Z,17.13
2018-01-27T13:00:45.183Z,17.27
2018-01-27T13:03:13.619Z,18.30
2018-01-27T13:05:42.452Z,16.43
2018-01-27T13:08:10.833Z,19.10
2018-01-27T13:10:39.210Z,18.20
2018-01-27T13:13:07.589Z,15.70
2018-01-27T13:15:35.967Z,16.50
2018-01-27T13:18:04.424Z,13.50
2018-01-27T13:20:32.844Z,15.27
2018-01-27T13:23:01.304Z,18.40
2018-01-27T13:25:29.706Z,17.13
2018-01-27T13:27:58.066Z,22.60
2018-01-27T13:30:26.427Z,19.57
2018-01-27T13:32:54.932Z,17.00
2018-01-27T13:35:23.303Z,12.87
2018-01-27T13:37:51.656Z,11.67
2018-01-27T13:40:20.036Z,12.60
2018-01-27T13:42:48.397Z,13.63
2018-01-27T13:45:17.152Z,11.13
2018-01-27T13:47:45.544Z,11.07
2018-01-27T13:50:14.311Z,10.43
2018-01-27T13:52:43.581Z,10.93
2018-01-27T13:55:11.954Z,10.40
2018-01-27T13:57:40.351Z,12.57
2018-01-27T14:00:08.731Z,10.20
2018-01-27T14:02:37.083Z,11.07
2018-01-27T14:05:05.492Z,11.87
2018-01-27T14:07:33.864Z,11.50
2018-01-27T14:10:02.352Z,11.67
2018-01-27T14:12:30.722Z,12.27
2018-01-27T14:14:59.085Z,12.00
2018-01-27T14:17:27.442Z,12.13
2018-01-27T14:19:55.865Z,12.90
2018-01-27T14:22:24.300Z,13.20
2018-01-27T14:24:53.062Z,13.40
2018-01-27T14:27:21.416Z,14.00
2018-01-27T14:29:49.789Z,13.57
2018-01-27T14:32:18.270Z,12.50
2018-01-27T14:34:46.622Z,12.77
2018-01-27T14:37:15.012Z,11.10
2018-01-27T14:39:43.373Z,12.57
2018-01-27T14:42:11.886Z,12.80
2018-01-27T14:44:40.247Z,12.00
2018-01-27T14:47:08.603Z,13.47
2018-01-27T14:49:36.975Z,13.53
2018-01-27T14:52:05.737Z,15.10
2018-01-27T14:54:34.093Z,14.60
2018-01-27T14:57:02.484Z,14.90
2018-01-27T14:59:30.836Z,13.70
2018-01-27T15:01:59.216Z,15.17
2018-01-27T15:04:27.577Z,15.57
2018-01-27T15:06:55.983Z,15.80
2018-01-27T15:09:24.338Z,15.40
2018-01-27T15:11:52.742Z,14.20
2018-01-27T15:14:21.225Z,17.53
2018-01-27T15:16:49.575Z,15.50
2018-01-27T15:19:17.982Z,16.53
2018-01-27T15:21:46.505Z,16.43
2018-01-27T15:24:15.279Z,17.40
2018-01-27T15:26:43.667Z,15.57
2018-01-27T15:29:12.019Z,16.03
2018-01-27T15:31:40.378Z,15.97
2018-01-27T15:34:08.842Z,16.30
2018-01-27T15:36:37.265Z,15.80
2018-01-27T15:39:05.718Z,15.50
2018-01-27T15:41:34.109Z,18.00
2018-01-27T15:44:02.583Z,17.03
2018-01-27T15:46:30.942Z,17.77
2018-01-27T15:48:59.346Z,19.30
2018-01-27T15:51:27.737Z,17.13
2018-01-27T15:53:56.083Z,18.10
2018-01-27T15:56:24.485Z,17.03
2018-01-27T15:58:52.845Z,18.87
2018-01-27T16:01:21.194Z,17.83
2018-01-27T16:03:49.714Z,18.47
2018-01-27T16:06:18.084Z,17.30
2018-01-27T16:08:46.485Z,17.30
2018-01-27T16:11:14.840Z,18.40
2018-01-27T16:13:43.199Z,17.17
2018-01-27T16:16:11.608Z,20.23
2018-01-27T16:18:40.083Z,19.40
2018-01-27T16:21:08.433Z,19.63
2018-01-27T16:23:36.862Z,19.57
2018-01-27T16:26:05.236Z,19.13
2018-01-27T16:28:33.720Z,19.43
2018-01-27T16:31:02.072Z,19.43
2018-01-27T16:33:30.422Z,19.60
2018-01-27T16:35:59.268Z,19.60
2018-01-27T16:38:27.735Z,19.30
2018-01-27T16:40:56.103Z,19.50
2018-01-27T16:43:24.459Z,18.83
2018-01-27T16:45:52.824Z,19.27
2018-01-27T16:48:21.585Z,18.63
2018-01-27T16:50:50.038Z,19.33
2018-01-27T16:53:18.566Z,19.30
2018-01-27T16:55:47.414Z,21.33
2018-01-27T16:58:15.791Z,22.20
2018-01-27T17:00:44.165Z,20.97
2018-01-27T17:03:12.528Z,22.27
2018-01-27T17:05:40.942Z,21.03
2018-01-27T17:08:09.319Z,21.80
2018-01-27T17:10:37.687Z,19.67
2018-01-27T17:13:06.056Z,20.50
2018-01-27T17:15:34.450Z,20.67
2018-01-27T17:18:02.938Z,20.47
2018-01-27T17:20:31.495Z,21.57
2018-01-27T17:22:59.967Z,20.90
2018-01-27T17:25:28.335Z,20.47
2018-01-27T17:27:56.683Z,23.10
2018-01-27T17:30:25.434Z,21.30
2018-01-27T17:32:53.789Z,19.87
2018-01-27T17:35:22.316Z,21.20
2018-01-27T17:37:50.681Z,21.50
2018-01-27T17:40:19.067Z,20.63
2018-01-27T17:42:47.413Z,20.20
2018-01-27T17:45:15.771Z,19.50
2018-01-27T17:47:44.140Z,22.90
2018-01-27T17:50:12.879Z,21.43
2018-01-27T17:52:41.325Z,20.70
2018-01-27T17:55:09.682Z,20.70
2018-01-27T17:57:38.522Z,22.33
2018-01-27T18:00:06.879Z,20.43
2018-01-27T18:02:35.283Z,21.90
2018-01-27T18:05:03.644Z,44.77
2018-01-27T18:07:32.035Z,29.83
2018-01-27T18:10:00.477Z,23.57
2018-01-27T18:12:28.814Z,25.43
2018-01-27T18:14:57.180Z,24.77
2018-01-27T18:17:25.664Z,25.67
2018-01-27T18:19:54.027Z,25.50
2018-01-27T18:22:22.419Z,24.50
2018-01-27T18:24:50.783Z,24.40
2018-01-27T18:27:19.126Z,24.63
2018-01-27T18:29:47.576Z,25.30
2018-01-27T18:32:15.929Z,26.40
2018-01-27T18:34:44.350Z,27.03
2018-01-27T18:37:13.187Z,30.97
2018-01-27T18:39:41.576Z,27.90
2018-01-27T18:42:09.951Z,28.77
2018-01-27T18:44:38.333Z,28.07
2018-01-27T18:47:06.712Z,25.37
2018-01-27T18:49:35.144Z,26.73
2018-01-27T18:52:03.888Z,26.97
2018-01-27T18:54:32.246Z,28.30
2018-01-27T18:57:00.604Z,27.37
2018-01-27T18:59:29.027Z,29.57
2018-01-27T19:01:57.389Z,28.63
2018-01-27T19:04:25.745Z,30.70
2018-01-27T19:06:54.116Z,28.13
2018-01-27T19:09:22.472Z,30.40
2018-01-27T19:11:51.242Z,32.20
2018-01-27T19:14:19.711Z,29.40
2018-01-27T19:16:48.085Z,30.00
2018-01-27T19:19:16.435Z,32.17
2018-01-27T19:21:44.787Z,31.70
2018-01-27T19:24:13.594Z,29.00
2018-01-27T19:26:41.942Z,30.93
2018-01-27T19:29:10.693Z,32.77
2018-01-27T19:31:39.176Z,31.53
2018-01-27T19:34:07.706Z,30.87
2018-01-27T19:36:36.092Z,30.97
2018-01-27T19:39:04.645Z,32.37
2018-01-27T19:41:33.500Z,29.13
2018-01-27T19:44:01.876Z,30.57
2018-01-27T19:46:30.250Z,34.23
2018-01-27T19:48:58.642Z,32.20
2018-01-27T19:51:26.988Z,31.57
2018-01-27T19:53:55.344Z,33.37
2018-01-27T19:56:24.136Z,31.47
2018-01-27T19:58:52.876Z,30.80
2018-01-27T20:01:21.347Z,30.37
2018-01-27T20:03:49.695Z,32.23
2018-01-27T20:06:18.107Z,30.27
2018-01-27T20:08:48.200Z,31.40
2018-01-27T20:11:16.551Z,32.20
2018-01-27T20:13:45.402Z,33.03
2018-01-27T20:16:13.777Z,30.90
2018-01-27T20:18:42.158Z,32.50
2018-01-27T20:21:11.156Z,32.67
2018-01-27T20:23:39.677Z,35.43
2018-01-27T20:26:08.591Z,34.40
2018-01-27T20:28:37.124Z,33.40
2018-01-27T20:31:05.475Z,34.27
2018-01-27T20:33:33.855Z,33.83
2018-01-27T20:36:02.292Z,33.50
2018-01-27T20:38:31.131Z,35.17
2018-01-27T20:40:59.494Z,34.77
2018-01-27T20:43:27.852Z,34.73
2018-01-27T20:45:56.219Z,35.20
2018-01-27T20:48:24.958Z,35.60
2018-01-27T20:50:53.336Z,36.10
2018-01-27T20:53:21.675Z,34.33
2018-01-27T20:55:50.030Z,35.43
2018-01-27T20:58:18.787Z,36.37
2018-01-27T21:00:47.693Z,35.57
2018-01-27T21:03:16.197Z,39.03
2018-01-27T21:05:45.377Z,35.73
2018-01-27T21:08:13.996Z,37.30
2018-01-27T21:10:43.695Z,32.40
2018-01-27T21:13:14.575Z,36.47
2018-01-27T21:15:43.094Z,35.30
2018-01-27T21:18:12.306Z,38.67
2018-01-27T21:20:43.386Z,36.10
2018-01-27T21:23:12.162Z,34.60
2018-01-27T21:25:41.873Z,37.97
2018-01-27T21:28:10.483Z,36.83
2018-01-27T21:30:39.444Z,36.77
2018-01-27T21:33:07.998Z,37.03
2018-01-27T21:35:36.610Z,37.33
2018-01-27T21:38:05.953Z,41.17
2018-01-27T21:40:34.417Z,42.47
2018-01-27T21:43:03.928Z,43.30
2018-01-27T21:45:34.311Z,45.00
2018-01-27T21:48:03.375Z,38.90
2018-01-27T21:50:32.412Z,37.33
2018-01-27T21:53:01.970Z,37.80
2018-01-27T21:55:31.171Z,40.87
2018-01-27T21:57:59.549Z,38.37
2018-01-27T22:00:28.321Z,37.27
2018-01-27T22:02:57.056Z,37.73
2018-01-27T22:05:26.825Z,33.60
2018-01-27T22:07:55.202Z,33.80
2018-01-27T22:10:24.123Z,35.20
2018-01-27T22:12:53.088Z,35.57
2018-01-27T22:15:22.152Z,31.73
2018-01-27T22:17:51.132Z,31.73
2018-01-27T22:20:20.453Z,33.20
2018-01-27T22:22:49.281Z,34.20
2018-01-27T22:25:17.737Z,31.33
2018-01-27T22:27:46.492Z,31.40
2018-01-27T22:30:15.421Z,30.67
2018-01-27T22:32:44.493Z,31.03
2018-01-27T22:35:14.267Z,30.00
2018-01-27T22:37:43.171Z,28.60
2018-01-27T22:40:12.206Z,28.63
2018-01-27T22:42:40.761Z,28.40
2018-01-27T22:45:09.826Z,28.93
2018-01-27T22:47:38.933Z,28.10
2018-01-27T22:50:07.713Z,27.43
2018-01-27T22:52:38.250Z,27.17
2018-01-27T22:55:07.392Z,27.13
2018-01-27T22:57:36.251Z,27.63
2018-01-27T23:00:04.878Z,28.90
2018-01-27T23:02:33.364Z,26.50
2018-01-27T23:05:01.734Z,26.07
2018-01-27T23:07:30.754Z,25.63
2018-01-27T23:10:00.073Z,25.40
2018-01-27T23:12:29.560Z,26.87
2018-01-27T23:14:58.447Z,23.80
2018-01-27T23:17:27.339Z,24.27
2018-01-27T23:19:56.221Z,23.93
2018-01-27T23:22:24.888Z,25.17
2018-01-27T23:24:54.127Z,24.17
2018-01-27T23:27:23.011Z,23.40
2018-01-27T23:29:51.954Z,24.80
2018-01-27T23:32:20.790Z,22.53
2018-01-27T23:34:50.379Z,21.17
2018-01-27T23:37:19.688Z,22.33
2018-01-27T23:39:48.357Z,21.87
2018-01-27T23:42:17.256Z,20.10
2018-01-27T23:44:46.033Z,21.33
2018-01-27T23:47:14.417Z,19.10
2018-01-27T23:49:44.081Z,20.17
2018-01-27T23:52:12.929Z,21.83
2018-01-27T23:54:41.718Z,18.17
2018-01-27T23:57:10.506Z,18.00
2018-01-27T23:59:38.867Z,17.30
